createdAt,value
2022-12-08T00:01:33.266Z,28.93
2022-12-08T00:04:03.359Z,28.40
2022-12-08T00:07:03.070Z,26.63
2022-12-08T00:09:39.458Z,27.70
2022-12-08T00:12:09.596Z,27.17
2022-12-08T00:14:41.756Z,29.47
2022-12-08T00:17:11.442Z,29.30
2022-12-08T00:19:39.439Z,29.20
2022-12-08T00:22:09.002Z,32.93
2022-12-08T00:24:40.488Z,30.53
2022-12-08T00:27:10.246Z,33.47
2022-12-08T00:29:37.344Z,30.93
2022-12-08T00:32:06.111Z,30.70
2022-12-08T00:34:33.827Z,31.97
2022-12-08T00:37:01.034Z,32.03
2022-12-08T00:39:28.668Z,33.20
2022-12-08T00:42:14.284Z,34.63
2022-12-08T00:44:44.235Z,34.77
2022-12-08T00:47:12.864Z,36.37
2022-12-08T00:49:40.045Z,35.90
2022-12-08T00:52:08.231Z,36.20
2022-12-08T00:54:35.396Z,38.73
2022-12-08T00:57:03.384Z,37.13
2022-12-08T00:59:30.521Z,38.70
2022-12-08T01:01:57.586Z,38.87
2022-12-08T01:04:24.964Z,37.50
2022-12-08T01:06:52.351Z,38.77
2022-12-08T01:09:19.801Z,38.03
2022-12-08T01:11:47.841Z,35.77
2022-12-08T01:14:15.284Z,37.03
2022-12-08T01:16:43.561Z,35.13
2022-12-08T01:19:13.932Z,33.13
2022-12-08T01:21:41.702Z,35.63
2022-12-08T01:24:17.228Z,33.40
2022-12-08T01:26:45.105Z,32.10
2022-12-08T01:29:12.392Z,32.23
2022-12-08T01:31:39.766Z,32.10
2022-12-08T01:34:08.347Z,33.73
2022-12-08T01:36:39.744Z,33.63
2022-12-08T01:39:17.493Z,31.23
2022-12-08T01:41:47.624Z,32.23
2022-12-08T01:44:14.484Z,29.90
2022-12-08T01:46:48.573Z,28.80
2022-12-08T01:49:26.740Z,26.93
2022-12-08T01:52:11.171Z,29.20
2022-12-08T01:54:49.761Z,29.00
2022-12-08T01:57:31.129Z,28.10
2022-12-08T02:00:18.262Z,28.83
2022-12-08T02:03:11.137Z,27.77
2022-12-08T02:05:40.409Z,24.93
2022-12-08T02:08:12.732Z,25.53
2022-12-08T02:10:42.705Z,26.17
2022-12-08T02:13:14.852Z,25.17
2022-12-08T02:16:01.023Z,25.37
2022-12-08T02:18:40.489Z,23.00
2022-12-08T02:21:22.399Z,23.40
2022-12-08T02:24:14.694Z,21.97
2022-12-08T02:27:13.582Z,18.57
2022-12-08T02:30:11.264Z,20.97
2022-12-08T02:33:20.854Z,21.67
2022-12-08T02:35:56.774Z,19.47
2022-12-08T02:38:51.680Z,16.17
2022-12-08T02:41:52.203Z,16.07
2022-12-08T02:44:48.560Z,15.80
2022-12-08T02:47:20.445Z,17.07
2022-12-08T02:49:47.819Z,18.80
2022-12-08T02:52:14.731Z,16.17
2022-12-08T02:54:53.401Z,15.83
2022-12-08T02:57:55.713Z,17.07
2022-12-08T03:00:27.775Z,16.77
2022-12-08T03:03:44.097Z,17.20
2022-12-08T03:06:35.739Z,16.97
2022-12-08T03:09:14.691Z,18.73
2022-12-08T03:12:11.614Z,18.73
2022-12-08T03:14:45.646Z,19.00
2022-12-08T03:17:15.800Z,18.53
2022-12-08T03:19:46.114Z,17.50
2022-12-08T03:22:16.187Z,20.60
2022-12-08T03:24:46.327Z,19.80
2022-12-08T03:27:24.748Z,19.83
2022-12-08T03:29:55.006Z,22.50
2022-12-08T03:32:54.177Z,24.30
2022-12-08T03:35:30.060Z,28.80
2022-12-08T03:38:24.756Z,26.57
2022-12-08T03:41:10.559Z,29.10
2022-12-08T03:43:38.359Z,30.63
2022-12-08T03:46:06.663Z,34.23
2022-12-08T03:48:33.969Z,37.23
2022-12-08T03:51:01.059Z,38.67
2022-12-08T03:53:29.761Z,38.80
2022-12-08T03:55:56.717Z,41.67
2022-12-08T03:58:23.775Z,42.30
2022-12-08T04:00:50.947Z,40.30
2022-12-08T04:03:18.159Z,44.20
2022-12-08T04:05:45.266Z,39.57
2022-12-08T04:08:12.434Z,44.93
2022-12-08T04:10:40.688Z,45.03
2022-12-08T04:13:07.881Z,42.37
2022-12-08T04:15:35.180Z,38.53
2022-12-08T04:18:05.361Z,38.33
2022-12-08T04:20:32.458Z,41.57
2022-12-08T04:22:59.552Z,40.47
2022-12-08T04:25:26.867Z,37.70
2022-12-08T04:27:54.190Z,38.33
2022-12-08T04:30:21.206Z,38.33
2022-12-08T04:32:48.468Z,37.23
2022-12-08T04:35:15.922Z,38.10
2022-12-08T04:37:44.321Z,35.67
2022-12-08T04:40:13.211Z,29.27
2022-12-08T04:42:40.817Z,32.03
2022-12-08T04:45:08.486Z,29.57
2022-12-08T04:47:35.876Z,27.03
2022-12-08T04:50:04.174Z,30.53
2022-12-08T04:52:31.730Z,29.27
2022-12-08T04:54:58.820Z,25.67
2022-12-08T04:57:26.006Z,25.80
2022-12-08T04:59:53.683Z,24.17
2022-12-08T05:02:20.876Z,26.80
2022-12-08T05:04:48.098Z,21.27
2022-12-08T05:07:15.144Z,21.47
2022-12-08T05:09:42.202Z,23.37
2022-12-08T05:12:09.471Z,20.77
2022-12-08T05:14:36.785Z,22.13
2022-12-08T05:17:09.355Z,22.13
2022-12-08T05:19:36.810Z,20.40
2022-12-08T05:22:03.956Z,20.47
2022-12-08T05:24:31.051Z,20.43
2022-12-08T05:26:59.520Z,20.27
2022-12-08T05:29:26.778Z,20.23
2022-12-08T05:31:54.212Z,23.07
2022-12-08T05:34:21.511Z,24.97
2022-12-08T05:36:48.737Z,21.03
2022-12-08T05:39:16.195Z,22.33
2022-12-08T05:41:43.400Z,18.47
2022-12-08T05:44:10.606Z,18.67
2022-12-08T05:46:37.943Z,17.57
2022-12-08T05:49:05.158Z,16.47
2022-12-08T05:51:32.655Z,14.57
2022-12-08T05:54:00.150Z,15.73
2022-12-08T05:56:28.537Z,10.93
2022-12-08T05:58:56.028Z,9.63
2022-12-08T06:01:30.727Z,10.07
2022-12-08T06:04:00.702Z,8.77
2022-12-08T06:06:28.417Z,8.13
2022-12-08T06:08:55.667Z,10.63
2022-12-08T06:11:29.580Z,9.30
2022-12-08T06:13:57.343Z,9.57
2022-12-08T06:16:26.880Z,8.07
2022-12-08T06:18:54.878Z,11.23
2022-12-08T06:21:22.274Z,12.87
2022-12-08T06:23:52.401Z,17.60
2022-12-08T06:26:21.077Z,14.20
2022-12-08T06:28:49.409Z,15.30
2022-12-08T06:31:24.015Z,18.87
2022-12-08T06:33:53.346Z,20.40
2022-12-08T06:36:53.349Z,22.50
2022-12-08T06:39:20.426Z,24.57
2022-12-08T06:42:06.064Z,26.77
2022-12-08T06:44:34.109Z,33.60
2022-12-08T06:47:01.715Z,33.70
2022-12-08T06:49:28.858Z,32.23
2022-12-08T06:51:56.071Z,28.90
2022-12-08T06:54:23.166Z,33.40
2022-12-08T06:56:50.470Z,33.30
2022-12-08T06:59:19.530Z,33.07
2022-12-08T07:01:47.570Z,32.33
2022-12-08T07:04:15.319Z,36.50
2022-12-08T07:06:42.404Z,31.47
2022-12-08T07:09:09.563Z,36.30
2022-12-08T07:11:39.099Z,32.00
2022-12-08T07:14:06.409Z,34.77
2022-12-08T07:16:33.811Z,28.17
2022-12-08T07:19:01.249Z,29.67
2022-12-08T07:21:28.344Z,28.60
2022-12-08T07:23:57.843Z,29.10
2022-12-08T07:26:26.849Z,27.13
2022-12-08T07:28:54.210Z,29.37
2022-12-08T07:31:25.470Z,27.07
2022-12-08T07:33:53.162Z,21.60
2022-12-08T07:36:20.269Z,23.33
2022-12-08T07:38:47.805Z,25.20
2022-12-08T07:41:23.474Z,27.10
2022-12-08T07:43:51.944Z,22.33
2022-12-08T07:46:21.924Z,23.57
2022-12-08T07:48:49.382Z,20.93
2022-12-08T07:51:17.204Z,22.83
2022-12-08T07:53:53.225Z,22.77
2022-12-08T07:56:21.946Z,21.53
2022-12-08T07:58:49.199Z,22.60
2022-12-08T08:01:30.792Z,24.40
2022-12-08T08:04:05.276Z,19.83
2022-12-08T08:06:34.297Z,18.30
2022-12-08T08:09:01.604Z,19.63
2022-12-08T08:11:28.939Z,19.83
2022-12-08T08:13:57.524Z,20.37
2022-12-08T08:16:24.836Z,18.60
2022-12-08T08:18:52.550Z,19.03
2022-12-08T08:24:08.709Z,19.63
2022-12-08T08:26:37.350Z,19.37
2022-12-08T08:29:04.525Z,17.33
2022-12-08T08:31:31.725Z,17.43
2022-12-08T08:34:04.903Z,18.23
2022-12-08T08:36:32.454Z,20.17
2022-12-08T08:38:59.791Z,16.63
2022-12-08T08:41:27.237Z,19.03
2022-12-08T08:43:55.432Z,20.23
2022-12-08T08:46:22.602Z,19.03
2022-12-08T08:48:49.789Z,21.53
2022-12-08T08:51:16.906Z,22.70
2022-12-08T08:53:44.104Z,19.03
2022-12-08T08:56:18.133Z,20.80
2022-12-08T08:58:48.474Z,21.93
2022-12-08T09:01:21.910Z,22.50
2022-12-08T09:03:50.032Z,23.90
2022-12-08T09:06:18.301Z,18.90
2022-12-08T09:08:47.996Z,23.37
2022-12-08T09:11:15.851Z,22.57
2022-12-08T09:13:43.002Z,22.73
2022-12-08T09:16:12.416Z,25.10
2022-12-08T09:18:39.777Z,23.90
2022-12-08T09:21:13.181Z,19.83
2022-12-08T09:23:41.020Z,20.60
2022-12-08T09:26:08.947Z,19.43
2022-12-08T09:28:36.261Z,19.60
2022-12-08T09:31:03.988Z,20.57
2022-12-08T09:33:34.940Z,22.07
2022-12-08T09:36:06.194Z,18.87
2022-12-08T09:38:33.961Z,21.93
2022-12-08T09:41:49.945Z,22.47
2022-12-08T09:44:57.413Z,19.50
2022-12-08T09:47:58.260Z,23.73
2022-12-08T09:50:35.533Z,18.13
2022-12-08T09:53:35.314Z,19.83
2022-12-08T09:56:12.808Z,19.87
2022-12-08T09:59:23.169Z,22.20
2022-12-08T10:01:51.048Z,20.30
2022-12-08T10:04:37.315Z,20.40
2022-12-08T10:07:20.451Z,23.37
2022-12-08T10:10:41.860Z,21.93
2022-12-08T10:13:39.751Z,19.10
2022-12-08T10:16:21.164Z,18.10
2022-12-08T10:19:20.365Z,19.93
2022-12-08T10:21:48.222Z,20.13
2022-12-08T10:24:37.337Z,18.90
2022-12-08T10:27:11.361Z,17.60
2022-12-08T10:29:40.593Z,21.90
2022-12-08T10:32:20.319Z,16.33
2022-12-08T10:35:13.171Z,15.97
2022-12-08T10:37:40.789Z,16.57
2022-12-08T10:40:16.550Z,15.30
2022-12-08T10:42:52.252Z,16.87
2022-12-08T10:45:23.253Z,16.07
2022-12-08T10:48:17.960Z,18.07
2022-12-08T10:50:52.358Z,17.73
2022-12-08T10:53:34.265Z,17.23
2022-12-08T10:56:04.477Z,14.47
2022-12-08T10:58:35.834Z,17.70
2022-12-08T11:01:28.243Z,14.60
2022-12-08T11:04:02.663Z,16.37
2022-12-08T11:06:37.604Z,20.67
2022-12-08T11:09:15.435Z,14.93
2022-12-08T11:11:54.658Z,14.77
2022-12-08T11:14:25.700Z,15.87
2022-12-08T11:17:28.720Z,14.63
2022-12-08T11:20:09.832Z,16.20
2022-12-08T11:22:45.944Z,14.70
2022-12-08T11:25:21.243Z,15.13
2022-12-08T11:27:51.342Z,15.77
2022-12-08T11:30:23.920Z,15.27
2022-12-08T11:33:07.122Z,15.30
2022-12-08T11:35:41.798Z,13.97
2022-12-08T11:38:22.709Z,14.00
2022-12-08T11:40:56.464Z,12.80
2022-12-08T11:43:35.920Z,12.70
2022-12-08T11:46:24.629Z,12.50
2022-12-08T11:49:06.381Z,12.87
2022-12-08T11:51:57.232Z,11.17
2022-12-08T11:54:36.265Z,13.57
2022-12-08T11:57:13.174Z,14.40
2022-12-08T11:59:49.699Z,13.20
2022-12-08T12:02:30.120Z,13.43
2022-12-08T12:05:47.492Z,14.20
2022-12-08T12:09:13.749Z,13.63
2022-12-08T12:12:29.082Z,14.07
2022-12-08T12:15:23.688Z,15.23
2022-12-08T12:18:16.706Z,16.70
2022-12-08T12:20:58.818Z,16.57
2022-12-08T12:23:44.952Z,13.73
2022-12-08T12:26:31.064Z,16.80
2022-12-08T12:29:00.045Z,12.70
2022-12-08T12:31:35.288Z,14.47
2022-12-08T12:34:20.866Z,14.57
2022-12-08T12:36:59.188Z,17.20
2022-12-08T12:39:30.450Z,16.47
2022-12-08T12:42:01.335Z,13.33
2022-12-08T12:44:28.239Z,12.60
2022-12-08T12:46:58.431Z,14.30
2022-12-08T12:49:40.768Z,17.07
2022-12-08T12:52:16.899Z,11.97
2022-12-08T12:55:10.112Z,12.97
2022-12-08T12:57:40.172Z,12.30
2022-12-08T13:00:17.888Z,11.43
2022-12-08T13:02:45.149Z,10.50
2022-12-08T13:05:27.555Z,11.53
2022-12-08T13:08:24.267Z,10.73
2022-12-08T13:11:05.805Z,11.80
2022-12-08T13:13:33.549Z,10.77
2022-12-08T13:16:18.541Z,14.93
2022-12-08T13:18:51.310Z,11.07
2022-12-08T13:21:24.589Z,12.20
2022-12-08T13:24:10.260Z,11.47
2022-12-08T13:27:11.295Z,14.90
2022-12-08T13:29:39.239Z,12.33
2022-12-08T13:32:09.806Z,14.13
2022-12-08T13:34:55.080Z,12.07
2022-12-08T13:37:54.315Z,13.13
2022-12-08T13:40:28.306Z,11.20
2022-12-08T13:43:26.506Z,10.27
2022-12-08T13:47:02.841Z,12.53
2022-12-08T13:55:49.668Z,10.67
2022-12-08T13:57:34.960Z,8.50
2022-12-08T14:00:18.756Z,7.17
2022-12-08T14:02:52.907Z,6.33
2022-12-08T14:05:35.142Z,5.97
2022-12-08T14:11:47.969Z,5.20
2022-12-08T14:15:01.190Z,7.40
2022-12-08T14:17:23.088Z,6.40
2022-12-08T14:20:25.363Z,5.37
2022-12-08T14:22:53.775Z,4.73
2022-12-08T14:25:23.800Z,5.43
2022-12-08T14:27:56.455Z,5.30
2022-12-08T14:30:32.908Z,5.90
2022-12-08T14:33:03.409Z,6.40
2022-12-08T14:35:34.931Z,5.67
2022-12-08T14:38:16.778Z,5.93
2022-12-08T14:41:06.785Z,5.90
2022-12-08T14:43:34.982Z,4.57
2022-12-08T14:46:19.052Z,5.73
2022-12-08T14:48:46.637Z,3.80
2022-12-08T14:51:22.023Z,3.53
2022-12-08T14:54:09.818Z,3.50
2022-12-08T14:57:02.288Z,2.97
2022-12-08T14:59:38.809Z,3.93
2022-12-08T15:02:26.570Z,3.20
2022-12-08T15:05:16.747Z,4.40
2022-12-08T15:07:55.502Z,2.90
2022-12-08T15:10:32.235Z,2.77
2022-12-08T15:13:05.143Z,2.70
2022-12-08T15:15:55.399Z,2.87
2022-12-08T15:18:39.601Z,3.23
2022-12-08T15:21:13.031Z,2.97
2022-12-08T15:23:49.045Z,4.83
2022-12-08T15:26:26.970Z,4.40
2022-12-08T15:28:55.178Z,5.43
2022-12-08T15:31:22.693Z,5.70
2022-12-08T15:33:50.109Z,5.63
2022-12-08T15:36:17.231Z,6.30
2022-12-08T15:38:44.395Z,7.70
2022-12-08T15:41:14.805Z,6.60
2022-12-08T15:43:42.678Z,7.67
2022-12-08T15:46:10.079Z,9.87
2022-12-08T15:48:38.008Z,7.17
2022-12-08T15:51:05.327Z,8.73
2022-12-08T15:53:32.569Z,8.33
2022-12-08T15:56:26.843Z,9.70
2022-12-08T15:58:55.709Z,9.10
2022-12-08T16:01:24.305Z,9.30
2022-12-08T16:09:38.350Z,9.03
2022-12-08T16:13:13.435Z,10.50
2022-12-08T16:18:15.228Z,11.27
2022-12-08T16:21:07.417Z,11.57
2022-12-08T16:23:42.787Z,10.03
2022-12-08T16:27:06.961Z,13.17
2022-12-08T16:29:16.697Z,12.07
2022-12-08T16:31:43.935Z,14.73
2022-12-08T16:34:11.269Z,13.27
2022-12-08T16:36:38.667Z,12.97
2022-12-08T16:42:14.826Z,13.77
2022-12-08T16:44:42.629Z,15.67
2022-12-08T16:47:10.447Z,17.03
2022-12-08T16:49:39.408Z,15.10
2022-12-08T16:52:07.274Z,13.87
2022-12-08T16:54:34.694Z,14.37
2022-12-08T16:57:01.902Z,14.27
2022-12-08T16:59:31.061Z,16.73
2022-12-08T17:01:58.398Z,15.53
2022-12-08T17:04:32.673Z,15.53
2022-12-08T17:07:00.087Z,15.50
2022-12-08T17:09:28.861Z,14.70
2022-12-08T17:12:01.917Z,15.63
2022-12-08T17:14:35.146Z,16.23
2022-12-08T17:17:02.689Z,14.40
2022-12-08T17:19:29.967Z,15.93
2022-12-08T17:21:57.130Z,17.97
2022-12-08T17:24:25.190Z,16.03
2022-12-08T17:26:52.861Z,20.37
2022-12-08T17:29:19.914Z,19.30
2022-12-08T17:31:47.058Z,19.00
2022-12-08T17:34:14.453Z,22.33
2022-12-08T17:36:41.516Z,19.07
2022-12-08T17:39:13.375Z,21.93
2022-12-08T17:41:43.569Z,20.27
2022-12-08T17:44:19.185Z,21.83
2022-12-08T17:46:52.420Z,17.40
2022-12-08T17:49:25.829Z,17.23
2022-12-08T17:51:55.930Z,19.60
2022-12-08T17:54:23.912Z,19.13
2022-12-08T17:56:51.379Z,18.13
2022-12-08T17:59:19.239Z,20.50
2022-12-08T18:01:46.598Z,19.43
2022-12-08T18:04:13.948Z,19.63
2022-12-08T18:06:41.027Z,18.60
2022-12-08T18:09:08.904Z,14.93
2022-12-08T18:11:36.561Z,17.53
2022-12-08T18:14:10.188Z,19.10
2022-12-08T18:16:46.400Z,18.20
2022-12-08T18:19:15.875Z,17.07
2022-12-08T18:21:43.829Z,16.67
2022-12-08T18:24:22.459Z,15.87
2022-12-08T18:26:52.378Z,16.10
2022-12-08T18:29:22.575Z,17.07
2022-12-08T18:31:50.352Z,15.33
2022-12-08T18:34:19.125Z,16.80
2022-12-08T18:36:46.642Z,17.43
2022-12-08T18:39:29.957Z,15.33
2022-12-08T18:41:59.078Z,17.03
2022-12-08T18:44:27.445Z,16.97
2022-12-08T18:46:54.751Z,16.10
2022-12-08T18:49:21.751Z,15.03
2022-12-08T18:51:49.055Z,19.73
2022-12-08T18:54:16.414Z,18.13
2022-12-08T18:56:43.524Z,19.30
2022-12-08T18:59:12.539Z,17.47
2022-12-08T19:01:41.007Z,17.20
2022-12-08T19:04:28.024Z,15.07
2022-12-08T19:06:57.052Z,16.13
2022-12-08T19:09:26.684Z,16.53
2022-12-08T19:11:57.302Z,19.70
2022-12-08T19:14:28.491Z,17.20
2022-12-08T19:16:57.805Z,17.03
2022-12-08T19:19:26.148Z,21.00
2022-12-08T19:21:53.683Z,17.47
2022-12-08T19:24:21.120Z,18.80
2022-12-08T19:26:48.625Z,17.67
2022-12-08T19:29:15.684Z,18.90
2022-12-08T19:31:43.197Z,18.30
2022-12-08T19:34:14.549Z,15.27
2022-12-08T19:36:43.178Z,17.10
2022-12-08T19:39:38.780Z,14.57
2022-12-08T19:42:38.157Z,16.50
2022-12-08T19:45:16.271Z,15.53
2022-12-08T19:47:43.879Z,14.07
2022-12-08T19:50:32.304Z,15.70
2022-12-08T19:53:00.204Z,15.90
2022-12-08T19:55:27.611Z,15.03
2022-12-08T19:57:56.717Z,16.97
2022-12-08T20:00:24.622Z,16.27
2022-12-08T20:02:52.296Z,16.57
2022-12-08T20:05:19.676Z,16.10
2022-12-08T20:07:47.185Z,15.33
2022-12-08T20:10:29.221Z,15.17
2022-12-08T20:13:16.645Z,16.03
2022-12-08T20:15:45.241Z,15.83
2022-12-08T20:18:14.981Z,15.77
2022-12-08T20:20:43.690Z,17.17
2022-12-08T20:23:11.302Z,15.93
2022-12-08T20:25:41.843Z,15.70
2022-12-08T20:28:09.157Z,16.67
2022-12-08T20:30:39.845Z,15.90
2022-12-08T20:33:07.431Z,17.57
2022-12-08T20:35:34.690Z,18.13
2022-12-08T20:38:02.276Z,20.87
2022-12-08T20:40:29.591Z,18.13
2022-12-08T20:42:56.632Z,17.57
2022-12-08T20:45:23.723Z,21.07
2022-12-08T20:47:50.937Z,21.20
2022-12-08T20:50:18.420Z,19.63
2022-12-08T20:52:45.762Z,22.70
2022-12-08T20:55:12.989Z,21.37
2022-12-08T20:57:43.301Z,23.40
2022-12-08T21:00:12.034Z,22.73
2022-12-08T21:02:46.872Z,21.50
2022-12-08T21:05:16.394Z,22.60
2022-12-08T21:07:44.191Z,20.43
2022-12-08T21:10:12.005Z,24.57
2022-12-08T21:12:39.726Z,26.63
2022-12-08T21:15:07.792Z,25.30
2022-12-08T21:17:35.314Z,27.97
2022-12-08T21:20:02.870Z,25.97
2022-12-08T21:22:30.029Z,24.47
2022-12-08T21:24:57.263Z,27.00
2022-12-08T21:27:24.623Z,27.83
2022-12-08T21:29:51.957Z,26.20
2022-12-08T21:32:19.393Z,29.80
2022-12-08T21:34:46.844Z,30.70
2022-12-08T21:37:13.937Z,30.90
2022-12-08T21:39:41.253Z,30.47
2022-12-08T21:42:33.738Z,30.10
2022-12-08T21:45:01.407Z,31.43
2022-12-08T21:47:28.670Z,31.10
2022-12-08T21:49:58.768Z,31.23
2022-12-08T21:52:26.628Z,31.93
2022-12-08T21:54:53.898Z,31.13
2022-12-08T21:57:20.949Z,31.53
2022-12-08T21:59:48.159Z,33.13
2022-12-08T22:02:20.839Z,30.17
2022-12-08T22:04:50.380Z,30.83
2022-12-08T22:07:18.898Z,32.50
2022-12-08T22:09:46.416Z,30.67
2022-12-08T22:12:13.875Z,32.17
2022-12-08T22:14:41.126Z,32.93
2022-12-08T22:17:08.534Z,29.90
2022-12-08T22:19:35.852Z,31.77
2022-12-08T22:22:03.487Z,27.13
2022-12-08T22:24:31.280Z,28.70
2022-12-08T22:26:58.723Z,30.33
2022-12-08T22:29:26.136Z,31.37
2022-12-08T22:31:53.526Z,29.53
2022-12-08T22:34:20.847Z,32.30
2022-12-08T22:36:49.059Z,30.67
2022-12-08T22:39:16.578Z,32.67
2022-12-08T22:41:43.811Z,35.97
2022-12-08T22:44:14.161Z,31.30
2022-12-08T22:46:41.217Z,30.67
2022-12-08T22:49:08.309Z,32.07
2022-12-08T22:51:38.807Z,33.43
2022-12-08T22:54:06.069Z,31.30
2022-12-08T22:56:33.645Z,32.00
2022-12-08T22:59:01.053Z,27.07
2022-12-08T23:01:33.658Z,34.60
2022-12-08T23:04:01.630Z,31.40
2022-12-08T23:06:30.850Z,34.77
2022-12-08T23:08:59.264Z,30.83
2022-12-08T23:11:30.648Z,29.40
2022-12-08T23:14:01.104Z,34.37
2022-12-08T23:16:29.005Z,30.33
2022-12-08T23:18:56.549Z,30.67
2022-12-08T23:21:23.976Z,30.23
2022-12-08T23:23:51.844Z,34.40
2022-12-08T23:26:27.420Z,33.23
2022-12-08T23:28:56.372Z,30.50
2022-12-08T23:31:24.847Z,28.77
2022-12-08T23:33:53.383Z,31.20
2022-12-08T23:36:22.758Z,34.13
2022-12-08T23:38:49.779Z,30.20
2022-12-08T23:41:17.337Z,28.90
2022-12-08T23:43:51.940Z,29.87
2022-12-08T23:46:22.605Z,31.80
2022-12-08T23:48:51.357Z,30.07
2022-12-08T23:51:19.614Z,34.30
2022-12-08T23:53:47.432Z,30.47
2022-12-08T23:56:17.028Z,27.63
2022-12-08T23:58:45.212Z,32.40
